createdAt,value
2022-10-22T00:00:55.898Z,39.97
2022-10-22T00:03:22.431Z,38.77
2022-10-22T00:05:48.835Z,37.13
2022-10-22T00:08:15.232Z,51.00
2022-10-22T00:10:41.922Z,39.33
2022-10-22T00:13:08.306Z,42.55
2022-10-22T00:15:34.827Z,41.90
2022-10-22T00:18:01.320Z,43.05
2022-10-22T00:20:27.761Z,46.05
2022-10-22T00:22:54.277Z,44.83
2022-10-22T00:25:20.700Z,44.58
2022-10-22T00:27:47.108Z,45.42
2022-10-22T00:30:13.730Z,42.97
2022-10-22T00:32:40.244Z,45.75
2022-10-22T00:35:07.642Z,43.95
2022-10-22T00:37:34.125Z,47.70
2022-10-22T00:40:00.490Z,44.72
2022-10-22T00:42:30.320Z,41.92
2022-10-22T00:45:11.585Z,48.42
2022-10-22T00:48:01.525Z,44.30
2022-10-22T00:50:38.352Z,43.95
2022-10-22T00:53:08.611Z,42.72
2022-10-22T00:55:35.549Z,46.38
2022-10-22T00:58:02.488Z,46.80
2022-10-22T01:00:29.046Z,52.80
2022-10-22T01:02:55.847Z,48.57
2022-10-22T01:05:22.853Z,44.25
2022-10-22T01:07:52.005Z,41.60
2022-10-22T01:10:30.208Z,44.65
2022-10-22T01:13:20.476Z,46.05
2022-10-22T01:16:03.772Z,44.35
2022-10-22T01:18:49.344Z,40.45
2022-10-22T01:21:24.806Z,43.53
2022-10-22T01:24:06.079Z,42.47
2022-10-22T01:27:12.964Z,43.35
2022-10-22T01:29:53.019Z,45.75
2022-10-22T01:32:23.254Z,39.42
2022-10-22T01:34:54.180Z,44.35
2022-10-22T01:37:24.022Z,45.92
2022-10-22T01:39:51.862Z,41.10
2022-10-22T01:42:18.331Z,42.78
2022-10-22T01:44:44.973Z,42.45
2022-10-22T01:47:21.214Z,38.13
2022-10-22T01:50:06.096Z,44.30
2022-10-22T01:52:57.918Z,40.97
2022-10-22T01:55:35.649Z,43.85
2022-10-22T01:58:15.375Z,46.03
2022-10-22T02:00:59.285Z,42.33
2022-10-22T02:03:35.986Z,48.55
2022-10-22T02:06:09.864Z,51.03
2022-10-22T02:08:37.277Z,44.42
2022-10-22T02:11:04.853Z,41.95
2022-10-22T02:13:41.475Z,42.20
2022-10-22T02:16:11.742Z,46.85
2022-10-22T02:18:42.907Z,46.28
2022-10-22T02:21:09.691Z,43.80
2022-10-22T02:23:36.467Z,47.92
2022-10-22T02:26:24.896Z,44.00
2022-10-22T02:29:06.656Z,45.92
2022-10-22T02:31:37.987Z,40.92
2022-10-22T02:34:10.137Z,41.25
2022-10-22T02:36:38.189Z,44.67
2022-10-22T02:39:08.324Z,45.40
2022-10-22T02:41:35.209Z,41.17
2022-10-22T02:44:03.030Z,47.50
2022-10-22T02:46:29.392Z,40.38
2022-10-22T02:48:55.780Z,43.25
2022-10-22T02:51:22.227Z,41.25
2022-10-22T02:53:48.635Z,34.92
2022-10-22T02:56:15.017Z,44.08
2022-10-22T02:58:41.440Z,41.35
2022-10-22T03:01:09.487Z,43.67
2022-10-22T03:03:38.791Z,49.33
2022-10-22T03:06:05.340Z,48.47
2022-10-22T03:08:31.885Z,45.25
2022-10-22T03:10:58.367Z,49.53
2022-10-22T03:13:24.730Z,50.55
2022-10-22T03:15:51.293Z,44.80
2022-10-22T03:18:18.019Z,46.37
2022-10-22T03:20:44.531Z,43.35
2022-10-22T03:23:14.462Z,47.42
2022-10-22T03:25:43.198Z,46.75
2022-10-22T03:28:13.153Z,44.47
2022-10-22T03:30:39.512Z,47.15
2022-10-22T03:33:05.905Z,50.60
2022-10-22T03:35:35.825Z,43.38
2022-10-22T03:38:02.252Z,45.45
2022-10-22T03:40:29.035Z,50.13
2022-10-22T03:42:55.557Z,47.17
2022-10-22T03:45:21.948Z,43.55
2022-10-22T03:47:48.369Z,40.85
2022-10-22T03:50:14.830Z,43.78
2022-10-22T03:52:41.200Z,42.58
2022-10-22T03:55:08.565Z,41.65
2022-10-22T03:57:35.005Z,42.65
2022-10-22T04:00:02.105Z,42.25
2022-10-22T04:02:28.511Z,38.53
2022-10-22T04:04:54.876Z,38.90
2022-10-22T04:07:21.269Z,42.63
2022-10-22T04:09:47.704Z,39.10
2022-10-22T04:12:14.185Z,35.45
2022-10-22T04:14:40.546Z,37.47
2022-10-22T04:17:06.930Z,39.35
2022-10-22T04:19:33.320Z,41.28
2022-10-22T04:21:59.894Z,39.53
2022-10-22T04:24:26.643Z,38.67
2022-10-22T04:26:56.562Z,44.15
2022-10-22T04:29:23.541Z,36.95
2022-10-22T04:31:49.930Z,37.38
2022-10-22T04:34:16.453Z,38.88
2022-10-22T04:36:42.862Z,37.03
2022-10-22T04:39:09.403Z,35.65
2022-10-22T04:41:38.689Z,38.28
2022-10-22T04:44:06.294Z,35.08
2022-10-22T04:46:34.481Z,37.60
2022-10-22T04:49:03.295Z,37.95
2022-10-22T04:51:30.095Z,40.47
2022-10-22T04:53:56.486Z,36.17
2022-10-22T04:56:25.540Z,38.88
2022-10-22T04:59:00.223Z,39.70
2022-10-22T05:01:29.220Z,35.65
2022-10-22T05:03:57.583Z,38.80
2022-10-22T05:06:25.051Z,36.50
2022-10-22T05:11:33.803Z,42.75
2022-10-22T05:14:02.183Z,39.85
2022-10-22T05:16:29.886Z,47.95
2022-10-22T05:18:58.793Z,39.65
2022-10-22T05:21:25.291Z,42.28
2022-10-22T05:23:54.936Z,41.78
2022-10-22T05:26:22.487Z,36.33
2022-10-22T05:33:43.569Z,42.35
2022-10-22T05:36:14.549Z,36.75
2022-10-22T05:38:41.036Z,39.80
2022-10-22T05:41:12.465Z,36.33
2022-10-22T05:43:39.668Z,37.17
2022-10-22T05:46:12.588Z,38.10
2022-10-22T05:48:39.574Z,34.28
2022-10-22T05:51:13.619Z,36.30
2022-10-22T05:53:42.401Z,32.88
2022-10-22T05:56:13.338Z,37.42
2022-10-22T05:58:40.006Z,33.83
2022-10-22T06:01:09.193Z,35.73
2022-10-22T06:03:35.553Z,34.80
2022-10-22T06:06:05.216Z,31.23
2022-10-22T06:08:31.749Z,33.88
2022-10-22T06:10:58.252Z,28.73
2022-10-22T06:13:24.662Z,34.38
2022-10-22T06:15:53.448Z,32.03
2022-10-22T06:18:20.216Z,32.80
2022-10-22T06:20:47.638Z,33.20
2022-10-22T06:23:14.795Z,39.75
2022-10-22T06:25:42.559Z,31.55
2022-10-22T06:28:09.330Z,33.58
2022-10-22T06:30:41.745Z,34.33
2022-10-22T06:33:10.668Z,34.03
2022-10-22T06:35:37.049Z,28.45
2022-10-22T06:38:03.434Z,32.70
2022-10-22T06:40:30.413Z,28.58
2022-10-22T06:42:59.406Z,31.90
2022-10-22T06:45:25.896Z,28.92
2022-10-22T06:47:52.387Z,32.97
2022-10-22T06:50:18.866Z,32.53
2022-10-22T06:52:45.556Z,34.00
2022-10-22T06:55:11.962Z,31.45
2022-10-22T06:57:38.755Z,34.15
2022-10-22T07:00:07.138Z,31.30
2022-10-22T07:02:33.574Z,33.17
2022-10-22T07:04:59.949Z,32.17
2022-10-22T07:07:26.572Z,33.25
2022-10-22T07:09:52.942Z,31.13
2022-10-22T07:12:19.318Z,33.50
2022-10-22T07:14:45.736Z,31.38
2022-10-22T07:17:12.116Z,30.17
2022-10-22T07:19:38.504Z,34.38
2022-10-22T07:22:04.952Z,27.95
2022-10-22T07:24:31.454Z,33.13
2022-10-22T07:26:58.373Z,34.78
2022-10-22T07:29:24.813Z,32.03
2022-10-22T07:31:51.312Z,30.75
2022-10-22T07:34:17.751Z,32.47
2022-10-22T07:36:44.132Z,30.77
2022-10-22T07:39:10.623Z,28.17
2022-10-22T07:41:36.985Z,32.38
2022-10-22T07:44:03.612Z,31.90
2022-10-22T07:46:30.026Z,27.50
2022-10-22T07:48:56.585Z,26.40
2022-10-22T07:51:23.095Z,31.13
2022-10-22T07:53:49.517Z,27.90
2022-10-22T07:56:16.025Z,30.08
2022-10-22T07:58:42.392Z,30.92
2022-10-22T08:01:09.020Z,26.92
2022-10-22T08:03:35.590Z,24.60
2022-10-22T08:06:02.413Z,24.45
2022-10-22T08:08:30.859Z,26.20
2022-10-22T08:10:59.996Z,28.70
2022-10-22T08:13:27.549Z,24.90
2022-10-22T08:18:24.442Z,26.15
2022-10-22T08:20:51.789Z,21.57
2022-10-22T08:23:18.210Z,23.23
2022-10-22T08:25:44.602Z,22.38
2022-10-22T08:28:11.032Z,22.33
2022-10-22T08:30:38.732Z,22.50
2022-10-22T08:33:05.983Z,24.58
2022-10-22T08:35:32.636Z,26.08
2022-10-22T08:37:59.147Z,22.83
2022-10-22T08:40:39.447Z,22.85
2022-10-22T08:43:26.298Z,23.00
2022-10-22T08:46:01.588Z,21.15
2022-10-22T08:48:49.680Z,19.55
2022-10-22T08:51:20.309Z,19.13
2022-10-22T08:53:56.728Z,18.75
2022-10-22T08:56:23.820Z,22.50
2022-10-22T08:59:02.872Z,17.45
2022-10-22T09:01:38.257Z,18.40
2022-10-22T09:04:45.120Z,20.17
2022-10-22T09:07:11.614Z,18.13
2022-10-22T09:09:47.764Z,20.42
2022-10-22T09:12:20.115Z,17.52
2022-10-22T09:14:47.088Z,15.80
2022-10-22T09:17:21.375Z,13.45
2022-10-22T09:20:17.330Z,14.13
2022-10-22T09:23:01.217Z,15.25
2022-10-22T09:25:30.746Z,16.13
2022-10-22T09:27:59.917Z,13.40
2022-10-22T09:30:29.876Z,16.38
2022-10-22T09:33:12.263Z,11.68
2022-10-22T09:35:56.388Z,11.20
2022-10-22T09:38:28.809Z,13.35
2022-10-22T09:40:57.249Z,10.88
2022-10-22T09:43:24.436Z,10.93
2022-10-22T09:46:03.439Z,13.15
2022-10-22T09:48:34.548Z,9.68
2022-10-22T09:51:26.454Z,9.15
2022-10-22T09:54:02.006Z,11.85
2022-10-22T09:56:43.396Z,12.90
2022-10-22T09:59:16.125Z,11.98
2022-10-22T10:01:43.133Z,12.95
2022-10-22T10:04:14.179Z,10.35
2022-10-22T10:06:43.424Z,9.60
2022-10-22T10:09:21.285Z,10.90
2022-10-22T10:12:14.980Z,10.00
2022-10-22T10:15:00.501Z,9.45
2022-10-22T10:17:47.717Z,12.30
2022-10-22T10:20:27.862Z,9.52
2022-10-22T10:23:19.534Z,10.07
2022-10-22T10:25:58.199Z,9.32
2022-10-22T10:28:39.821Z,6.47
2022-10-22T10:31:33.187Z,9.30
2022-10-22T10:34:05.336Z,6.82
2022-10-22T10:36:59.873Z,5.28
2022-10-22T10:39:37.821Z,4.43
2022-10-22T10:42:35.224Z,5.05
2022-10-22T10:45:23.134Z,3.13
2022-10-22T10:47:55.323Z,5.43
2022-10-22T10:50:49.605Z,3.33
2022-10-22T10:53:33.667Z,2.03
2022-10-22T10:56:05.717Z,2.38
2022-10-22T10:58:49.219Z,1.95
2022-10-22T11:01:33.078Z,2.08
2022-10-22T11:04:25.969Z,2.30
2022-10-22T11:07:11.581Z,2.13
2022-10-22T11:10:00.607Z,3.95
2022-10-22T11:12:33.472Z,1.85
2022-10-22T11:15:06.283Z,1.55
2022-10-22T11:17:40.414Z,1.58
2022-10-22T11:20:18.685Z,3.03
2022-10-22T11:23:16.886Z,1.20
2022-10-22T11:25:48.495Z,2.95
2022-10-22T11:28:53.410Z,1.35
2022-10-22T11:31:25.364Z,1.42
2022-10-22T11:34:32.605Z,1.98
2022-10-22T11:37:01.118Z,0.40
2022-10-22T11:39:42.694Z,1.42
2022-10-22T11:42:37.722Z,0.65
2022-10-22T11:45:06.791Z,0.43
2022-10-22T11:47:42.150Z,2.40
2022-10-22T11:50:25.486Z,0.63
2022-10-22T11:53:08.382Z,1.52
2022-10-22T11:55:51.428Z,0.85
2022-10-22T11:58:50.814Z,0.80
2022-10-22T12:01:48.592Z,1.38
2022-10-22T12:04:17.766Z,1.13
2022-10-22T12:07:14.605Z,1.45
2022-10-22T12:12:19.308Z,2.08
2022-10-22T12:15:04.181Z,3.63
2022-10-22T12:17:31.266Z,2.03
2022-10-22T12:20:14.169Z,1.67
2022-10-22T12:22:41.461Z,3.60
2022-10-22T12:27:55.072Z,1.50
2022-10-22T12:30:27.449Z,2.80
2022-10-22T12:33:00.591Z,1.90
2022-10-22T12:35:30.455Z,2.13
2022-10-22T12:38:01.299Z,1.80
2022-10-22T12:40:30.006Z,1.88
2022-10-22T12:43:01.934Z,3.03
2022-10-22T12:45:30.857Z,3.72
2022-10-22T12:47:59.869Z,3.05
2022-10-22T12:50:40.180Z,2.25
2022-10-22T12:53:33.607Z,3.15
2022-10-22T12:56:03.067Z,2.90
2022-10-22T12:58:44.487Z,3.65
2022-10-22T13:01:13.013Z,3.28
2022-10-22T13:03:45.971Z,2.60
2022-10-22T13:06:18.495Z,2.60
2022-10-22T13:09:00.378Z,3.20
2022-10-22T13:11:51.814Z,2.58
2022-10-22T13:14:22.257Z,2.33
2022-10-22T13:17:07.579Z,3.65
2022-10-22T13:19:36.955Z,2.95
2022-10-22T13:22:03.403Z,2.67
2022-10-22T13:24:31.043Z,3.00
2022-10-22T13:26:57.530Z,3.40
2022-10-22T13:29:24.803Z,4.10
2022-10-22T13:31:53.778Z,2.40
2022-10-22T13:34:23.434Z,4.22
2022-10-22T13:36:50.746Z,2.30
2022-10-22T13:39:23.198Z,3.13
2022-10-22T13:41:51.121Z,2.65
2022-10-22T13:44:18.878Z,2.70
2022-10-22T13:46:46.138Z,2.60
2022-10-22T13:49:23.391Z,1.65
2022-10-22T13:51:51.373Z,3.70
2022-10-22T13:54:23.745Z,1.88
2022-10-22T13:56:50.806Z,2.00
2022-10-22T13:59:19.813Z,1.60
2022-10-22T14:01:49.427Z,1.88
2022-10-22T14:04:16.060Z,2.47
2022-10-22T14:06:42.687Z,1.55
2022-10-22T14:09:16.717Z,2.28
2022-10-22T14:11:43.429Z,1.80
2022-10-22T14:14:13.992Z,1.10
2022-10-22T14:16:40.562Z,0.93
2022-10-22T14:19:07.780Z,1.00
2022-10-22T14:21:37.472Z,1.00
2022-10-22T14:24:06.116Z,1.00
2022-10-22T14:26:35.115Z,0.70
2022-10-22T14:29:10.656Z,0.85
2022-10-22T14:31:43.223Z,0.77
2022-10-22T14:34:11.615Z,0.60
2022-10-22T14:39:06.962Z,0.60
2022-10-22T14:41:33.756Z,0.63
2022-10-22T14:44:00.533Z,0.73
2022-10-22T14:46:27.269Z,1.10
2022-10-22T14:48:53.919Z,0.85
2022-10-22T14:51:21.626Z,1.30
2022-10-22T14:53:48.601Z,0.73
2022-10-22T14:56:18.192Z,1.15
2022-10-22T14:58:45.721Z,0.90
2022-10-22T15:01:12.628Z,0.60
2022-10-22T15:03:39.155Z,1.85
2022-10-22T15:06:06.561Z,0.57
2022-10-22T15:11:07.998Z,0.60
2022-10-22T15:13:35.179Z,1.25
2022-10-22T15:16:02.064Z,0.60
2022-10-22T15:18:28.722Z,0.73
2022-10-22T15:21:04.372Z,1.05
2022-10-22T15:23:31.317Z,2.55
2022-10-22T15:25:58.155Z,0.95
2022-10-22T15:28:25.340Z,1.67
2022-10-22T15:30:56.611Z,0.80
2022-10-22T15:33:23.871Z,1.33
2022-10-22T15:35:50.486Z,0.80
2022-10-22T15:38:17.663Z,0.75
2022-10-22T15:40:44.760Z,1.27
2022-10-22T15:43:11.820Z,2.65
2022-10-22T15:45:38.881Z,3.60
2022-10-22T15:48:05.572Z,1.40
2022-10-22T15:50:32.251Z,1.38
2022-10-22T15:52:58.813Z,1.65
2022-10-22T15:55:25.355Z,2.10
2022-10-22T15:57:56.469Z,2.53
2022-10-22T16:00:25.123Z,3.47
2022-10-22T16:02:53.716Z,3.00
2022-10-22T16:05:20.358Z,2.80
2022-10-22T16:07:47.148Z,2.90
2022-10-22T16:10:16.793Z,3.88
2022-10-22T16:12:43.597Z,3.17
2022-10-22T16:15:10.661Z,3.70
2022-10-22T16:17:37.229Z,6.88
2022-10-22T16:20:04.003Z,5.80
2022-10-22T16:22:30.587Z,5.88
2022-10-22T16:24:57.123Z,6.97
2022-10-22T16:27:23.602Z,7.50
2022-10-22T16:29:50.024Z,5.53
2022-10-22T16:32:16.803Z,6.57
2022-10-22T16:34:43.484Z,6.78
2022-10-22T16:37:10.358Z,8.00
2022-10-22T16:39:37.126Z,8.68
2022-10-22T16:42:04.036Z,10.20
2022-10-22T16:44:30.526Z,11.93
2022-10-22T16:46:56.960Z,15.63
2022-10-22T16:49:23.587Z,14.25
2022-10-22T16:51:50.091Z,11.77
2022-10-22T16:54:16.631Z,14.88
2022-10-22T16:56:43.086Z,13.57
2022-10-22T16:59:09.541Z,12.98
2022-10-22T17:01:40.558Z,12.50
2022-10-22T17:04:08.041Z,13.43
2022-10-22T17:06:34.709Z,14.43
2022-10-22T17:09:01.378Z,13.73
2022-10-22T17:11:30.185Z,12.05
2022-10-22T17:13:56.918Z,11.15
2022-10-22T17:16:24.956Z,10.10
2022-10-22T17:18:53.861Z,7.80
2022-10-22T17:21:21.704Z,8.40
2022-10-22T17:23:48.550Z,7.00
2022-10-22T17:26:18.474Z,7.75
2022-10-22T17:28:45.310Z,7.55
2022-10-22T17:31:22.596Z,6.38
2022-10-22T17:36:18.349Z,5.90
2022-10-22T17:38:50.680Z,7.05
2022-10-22T17:41:20.867Z,9.85
2022-10-22T17:43:47.876Z,7.28
2022-10-22T17:46:23.265Z,7.28
2022-10-22T17:48:52.623Z,6.22
2022-10-22T17:51:20.304Z,9.68
2022-10-22T17:53:48.023Z,7.22
2022-10-22T17:56:16.876Z,7.80
2022-10-22T17:58:43.694Z,10.80
2022-10-22T18:01:29.723Z,9.23
2022-10-22T18:04:03.475Z,8.30
2022-10-22T18:06:30.640Z,6.90
2022-10-22T18:08:57.307Z,6.30
2022-10-22T18:11:26.593Z,8.13
2022-10-22T18:13:55.240Z,17.02
2022-10-22T18:16:21.934Z,7.78
2022-10-22T18:18:49.857Z,9.13
2022-10-22T18:21:17.537Z,9.20
2022-10-22T18:23:45.020Z,13.18
2022-10-22T18:28:38.018Z,8.43
2022-10-22T18:31:09.259Z,7.60
2022-10-22T18:33:36.873Z,8.20
2022-10-22T18:36:05.995Z,8.02
2022-10-22T18:38:33.422Z,9.30
2022-10-22T18:41:00.368Z,7.03
2022-10-22T18:43:27.233Z,7.55
2022-10-22T18:45:53.688Z,10.90
2022-10-22T18:48:22.784Z,11.82
2022-10-22T18:51:03.036Z,9.02
2022-10-22T18:53:29.657Z,8.05
2022-10-22T18:55:57.653Z,7.97
2022-10-22T18:58:24.238Z,14.60
2022-10-22T19:00:51.152Z,11.73
2022-10-22T19:03:17.836Z,8.82
2022-10-22T19:05:49.919Z,10.43
2022-10-22T19:08:19.627Z,12.73
2022-10-22T19:10:47.258Z,10.95
2022-10-22T19:13:15.869Z,15.10
2022-10-22T19:15:42.823Z,12.55
2022-10-22T19:18:10.482Z,11.45
2022-10-22T19:20:37.495Z,13.65
2022-10-22T19:23:04.481Z,14.00
2022-10-22T19:25:30.956Z,12.50
2022-10-22T19:27:57.425Z,12.75
2022-10-22T19:30:24.277Z,11.77
2022-10-22T19:32:50.811Z,12.50
2022-10-22T19:35:17.727Z,14.57
2022-10-22T19:37:48.266Z,11.80
2022-10-22T19:40:15.418Z,11.35
2022-10-22T19:42:47.170Z,16.65
2022-10-22T19:45:13.635Z,11.05
2022-10-22T19:47:40.380Z,12.98
2022-10-22T19:50:06.979Z,12.52
2022-10-22T19:52:33.511Z,12.52
2022-10-22T19:55:00.025Z,11.07
2022-10-22T19:57:26.515Z,14.18
2022-10-22T19:59:52.990Z,10.23
2022-10-22T20:02:19.685Z,8.27
2022-10-22T20:04:49.274Z,9.63
2022-10-22T20:07:16.502Z,11.07
2022-10-22T20:09:42.929Z,11.02
2022-10-22T20:12:09.324Z,8.98
2022-10-22T20:14:36.138Z,9.30
2022-10-22T20:17:02.635Z,11.48
2022-10-22T20:19:29.838Z,9.75
2022-10-22T20:21:56.567Z,9.00
2022-10-22T20:24:23.093Z,13.38
2022-10-22T20:26:49.641Z,11.30
2022-10-22T20:29:19.051Z,10.90
2022-10-22T20:31:46.495Z,12.20
2022-10-22T20:34:13.261Z,12.68
2022-10-22T20:36:40.564Z,12.57
2022-10-22T20:39:10.879Z,9.45
2022-10-22T20:41:40.675Z,12.05
2022-10-22T20:44:11.515Z,9.60
2022-10-22T20:46:38.418Z,10.57
2022-10-22T20:49:09.097Z,11.73
2022-10-22T20:51:37.048Z,9.27
2022-10-22T20:54:05.351Z,8.98
2022-10-22T20:56:32.457Z,8.10
2022-10-22T20:59:06.150Z,10.93
2022-10-22T21:01:39.250Z,11.43
2022-10-22T21:04:07.262Z,9.30
2022-10-22T21:06:38.364Z,8.95
2022-10-22T21:09:12.403Z,12.73
2022-10-22T21:11:40.795Z,11.48
2022-10-22T21:14:09.666Z,10.10
2022-10-22T21:16:41.343Z,10.05
2022-10-22T21:19:08.176Z,8.30
2022-10-22T21:21:34.943Z,10.25
2022-10-22T21:24:01.654Z,8.90
2022-10-22T21:26:28.860Z,10.52
2022-10-22T21:28:58.170Z,9.63
2022-10-22T21:31:26.534Z,7.75
2022-10-22T21:33:54.049Z,8.20
2022-10-22T21:38:53.984Z,9.85
2022-10-22T21:41:23.022Z,7.63
2022-10-22T21:43:50.736Z,8.32
2022-10-22T21:46:18.917Z,7.63
2022-10-22T21:48:46.021Z,7.72
2022-10-22T21:51:18.621Z,8.50
2022-10-22T21:53:46.325Z,8.13
2022-10-22T21:56:33.781Z,7.45
2022-10-22T21:59:01.814Z,6.40
2022-10-22T22:01:28.823Z,8.07
2022-10-22T22:03:55.669Z,7.85
2022-10-22T22:06:28.268Z,7.60
2022-10-22T22:09:00.755Z,7.05
2022-10-22T22:11:29.139Z,8.38
2022-10-22T22:13:58.270Z,6.82
2022-10-22T22:16:28.832Z,7.00
2022-10-22T22:18:58.681Z,7.00
2022-10-22T22:21:25.464Z,7.45
2022-10-22T22:23:52.224Z,6.55
2022-10-22T22:26:26.690Z,10.05
2022-10-22T22:28:57.000Z,6.53
2022-10-22T22:33:57.794Z,7.30
2022-10-22T22:36:24.439Z,6.28
2022-10-22T22:38:55.444Z,8.37
2022-10-22T22:41:22.251Z,7.65
2022-10-22T22:43:49.259Z,6.72
2022-10-22T22:46:16.568Z,7.40
2022-10-22T22:48:43.304Z,6.70
2022-10-22T22:51:10.276Z,7.70
2022-10-22T22:53:37.240Z,7.10
2022-10-22T22:56:13.964Z,6.00
2022-10-22T22:58:41.501Z,6.22
2022-10-22T23:03:57.699Z,7.25
2022-10-22T23:06:27.282Z,6.60
2022-10-22T23:08:54.326Z,7.63
2022-10-22T23:11:22.208Z,7.32
2022-10-22T23:13:56.480Z,6.78
2022-10-22T23:16:25.254Z,7.57
2022-10-22T23:18:53.823Z,7.22
2022-10-22T23:21:23.558Z,8.65
2022-10-22T23:23:53.074Z,8.52
2022-10-22T23:26:26.688Z,6.45
2022-10-22T23:28:53.560Z,6.40
2022-10-22T23:31:21.962Z,6.55
2022-10-22T23:33:48.812Z,9.30
2022-10-22T23:36:16.034Z,6.82
2022-10-22T23:38:42.984Z,5.82
2022-10-22T23:41:10.031Z,6.57
2022-10-22T23:43:37.768Z,6.75
2022-10-22T23:46:09.862Z,6.15
2022-10-22T23:48:37.933Z,5.85
2022-10-22T23:51:16.037Z,6.97
2022-10-22T23:53:47.084Z,6.93
2022-10-22T23:56:16.647Z,6.28
2022-10-22T23:58:43.913Z,6.57
